createdAt,value
2023-04-09T00:01:07.201Z,4.77
2023-04-09T00:02:12.039Z,4.80
2023-04-09T00:03:13.875Z,4.83
2023-04-09T00:04:15.660Z,4.72
2023-04-09T00:05:17.287Z,4.81
2023-04-09T00:06:18.927Z,4.89
2023-04-09T00:07:20.758Z,4.93
2023-04-09T00:08:23.931Z,5.01
2023-04-09T00:09:25.940Z,5.00
2023-04-09T00:10:27.594Z,4.97
2023-04-09T00:11:29.289Z,5.00
2023-04-09T00:12:30.866Z,4.91
2023-04-09T00:13:39.049Z,5.03
2023-04-09T00:14:41.064Z,5.00
2023-04-09T00:15:42.644Z,4.91
2023-04-09T00:16:44.304Z,4.93
2023-04-09T00:17:45.929Z,4.87
2023-04-09T00:18:47.615Z,4.90
2023-04-09T00:19:49.199Z,4.87
2023-04-09T00:20:50.958Z,4.80
2023-04-09T00:21:52.709Z,4.75
2023-04-09T00:22:54.417Z,4.75
2023-04-09T00:23:56.223Z,4.80
2023-04-09T00:24:57.804Z,4.83
2023-04-09T00:25:59.444Z,4.83
2023-04-09T00:27:01.113Z,4.87
2023-04-09T00:28:02.753Z,4.94
2023-04-09T00:29:04.428Z,4.91
2023-04-09T00:30:06.692Z,4.97
2023-04-09T00:31:08.379Z,4.91
2023-04-09T00:32:09.994Z,4.96
2023-04-09T00:33:11.725Z,4.89
2023-04-09T00:34:13.620Z,4.99
2023-04-09T00:35:16.330Z,4.91
2023-04-09T00:36:18.071Z,4.90
2023-04-09T00:37:19.712Z,4.90
2023-04-09T00:38:21.449Z,4.84
2023-04-09T00:39:23.097Z,4.73
2023-04-09T00:40:24.736Z,4.80
2023-04-09T00:41:26.586Z,4.76
2023-04-09T00:42:32.274Z,4.83
2023-04-09T00:43:33.949Z,4.84
2023-04-09T00:44:35.836Z,4.87
2023-04-09T00:45:37.691Z,4.96
2023-04-09T00:46:39.311Z,4.91
2023-04-09T00:47:43.131Z,4.91
2023-04-09T00:48:44.797Z,4.83
2023-04-09T00:49:46.392Z,4.94
2023-04-09T00:50:47.996Z,4.90
2023-04-09T00:51:49.587Z,4.91
2023-04-09T00:52:51.389Z,4.91
2023-04-09T00:53:53.982Z,5.00
2023-04-09T00:54:55.583Z,5.04
2023-04-09T00:55:57.197Z,5.01
2023-04-09T00:56:58.790Z,4.89
2023-04-09T00:58:00.422Z,4.99
2023-04-09T00:59:02.073Z,5.04
2023-04-09T01:00:04.674Z,5.04
2023-04-09T01:01:07.177Z,5.04
2023-04-09T01:02:08.881Z,5.09
2023-04-09T01:03:10.604Z,5.01
2023-04-09T01:04:12.275Z,5.07
2023-04-09T01:05:14.653Z,4.96
2023-04-09T01:06:39.040Z,5.01
2023-04-09T01:07:48.045Z,5.00
2023-04-09T01:09:07.602Z,5.01
2023-04-09T01:10:16.449Z,5.03
2023-04-09T01:11:33.634Z,5.01
2023-04-09T01:12:46.933Z,4.94
2023-04-09T01:14:01.507Z,4.90
2023-04-09T01:15:07.385Z,4.99
2023-04-09T01:16:09.081Z,4.99
2023-04-09T01:17:15.813Z,4.97
2023-04-09T01:18:40.310Z,5.06
2023-04-09T01:19:55.074Z,4.97
2023-04-09T01:21:27.655Z,5.00
2023-04-09T01:23:06.620Z,5.00
2023-04-09T01:24:29.601Z,5.03
2023-04-09T01:26:02.485Z,5.04
2023-04-09T01:27:06.748Z,5.01
2023-04-09T01:28:17.922Z,5.10
2023-04-09T01:29:20.443Z,5.01
2023-04-09T01:30:22.702Z,5.06
2023-04-09T01:31:29.871Z,5.07
2023-04-09T01:32:33.614Z,5.16
2023-04-09T01:33:36.296Z,5.09
2023-04-09T01:34:38.973Z,5.06
2023-04-09T01:35:42.953Z,5.06
2023-04-09T01:36:47.300Z,5.11
2023-04-09T01:37:48.975Z,5.10
2023-04-09T01:38:51.700Z,5.14
2023-04-09T01:39:53.469Z,5.21
2023-04-09T01:40:55.972Z,5.23
2023-04-09T01:41:58.025Z,5.17
2023-04-09T01:42:59.677Z,5.16
2023-04-09T01:44:02.395Z,5.14
2023-04-09T01:45:04.853Z,5.20
2023-04-09T01:46:06.474Z,5.16
2023-04-09T01:47:08.712Z,5.20
2023-04-09T01:48:10.428Z,5.20
2023-04-09T01:49:12.098Z,5.11
2023-04-09T01:50:13.701Z,5.10
2023-04-09T01:51:15.515Z,5.09
2023-04-09T01:52:17.107Z,4.99
2023-04-09T01:53:18.824Z,4.99
2023-04-09T01:54:20.509Z,5.06
2023-04-09T01:55:22.098Z,4.87
2023-04-09T01:56:23.681Z,4.99
2023-04-09T01:57:25.377Z,4.99
2023-04-09T01:58:27.288Z,4.93
2023-04-09T01:59:28.866Z,4.96
2023-04-09T02:00:39.291Z,5.00
2023-04-09T02:01:48.315Z,5.04
2023-04-09T02:03:03.595Z,5.09
2023-04-09T02:04:08.083Z,5.06
2023-04-09T02:05:10.931Z,5.07
2023-04-09T02:06:16.316Z,5.03
2023-04-09T02:07:46.960Z,5.03
2023-04-09T02:08:48.561Z,5.10
2023-04-09T02:09:50.459Z,5.09
2023-04-09T02:10:59.478Z,5.10
2023-04-09T02:12:03.385Z,5.14
2023-04-09T02:13:05.978Z,5.11
2023-04-09T02:14:09.013Z,5.07
2023-04-09T02:15:10.859Z,5.11
2023-04-09T02:16:12.599Z,5.04
2023-04-09T02:17:14.342Z,5.16
2023-04-09T02:18:29.605Z,5.14
2023-04-09T02:19:47.229Z,5.03
2023-04-09T02:20:48.906Z,5.04
2023-04-09T02:21:50.502Z,5.13
2023-04-09T02:22:52.092Z,5.16
2023-04-09T02:23:53.725Z,5.07
2023-04-09T02:24:55.435Z,5.09
2023-04-09T02:25:57.015Z,5.09
2023-04-09T02:26:58.575Z,5.06
2023-04-09T02:28:00.164Z,5.10
2023-04-09T02:29:01.789Z,5.10
2023-04-09T02:30:04.205Z,5.14
2023-04-09T02:31:05.828Z,5.09
2023-04-09T02:32:07.598Z,5.04
2023-04-09T02:33:09.202Z,5.10
2023-04-09T02:34:10.947Z,5.07
2023-04-09T02:35:12.922Z,5.03
2023-04-09T02:36:14.538Z,5.10
2023-04-09T02:37:16.140Z,5.10
2023-04-09T02:38:17.743Z,5.14
2023-04-09T02:39:19.400Z,5.11
2023-04-09T02:40:21.039Z,5.16
2023-04-09T02:41:22.744Z,5.17
2023-04-09T02:42:24.401Z,5.21
2023-04-09T02:43:25.992Z,5.23
2023-04-09T02:44:27.619Z,5.20
2023-04-09T02:45:29.488Z,5.14
2023-04-09T02:46:31.150Z,5.11
2023-04-09T02:47:32.828Z,5.17
2023-04-09T02:48:34.424Z,5.14
2023-04-09T02:49:36.048Z,5.18
2023-04-09T02:50:37.751Z,5.24
2023-04-09T02:51:39.325Z,5.14
2023-04-09T02:52:40.932Z,5.16
2023-04-09T02:53:42.550Z,5.17
2023-04-09T02:54:44.142Z,5.17
2023-04-09T02:55:45.838Z,5.16
2023-04-09T02:56:47.426Z,5.13
2023-04-09T02:57:49.031Z,5.17
2023-04-09T02:58:54.085Z,5.14
2023-04-09T02:59:55.965Z,5.13
2023-04-09T03:00:57.580Z,5.07
2023-04-09T03:01:59.289Z,5.06
2023-04-09T03:03:01.199Z,5.01
2023-04-09T03:04:03.094Z,5.04
2023-04-09T03:05:05.133Z,5.10
2023-04-09T03:06:06.772Z,5.14
2023-04-09T03:07:08.460Z,5.09
2023-04-09T03:08:10.081Z,4.89
2023-04-09T03:09:11.727Z,4.96
2023-04-09T03:10:13.548Z,4.99
2023-04-09T03:11:15.878Z,5.04
2023-04-09T03:12:17.536Z,4.89
2023-04-09T03:13:19.183Z,4.91
2023-04-09T03:14:20.779Z,4.86
2023-04-09T03:15:22.343Z,4.86
2023-04-09T03:16:25.401Z,4.86
2023-04-09T03:17:27.395Z,4.83
2023-04-09T03:18:29.073Z,4.84
2023-04-09T03:19:33.748Z,4.83
2023-04-09T03:20:38.510Z,4.90
2023-04-09T03:21:40.945Z,4.93
2023-04-09T03:22:42.512Z,4.96
2023-04-09T03:23:44.132Z,4.97
2023-04-09T03:24:45.856Z,5.00
2023-04-09T03:25:47.464Z,4.99
2023-04-09T03:26:49.021Z,5.00
2023-04-09T03:27:50.596Z,5.03
2023-04-09T03:28:52.390Z,5.03
2023-04-09T03:29:56.456Z,4.89
2023-04-09T03:30:58.216Z,4.93
2023-04-09T03:31:59.834Z,4.97
2023-04-09T03:33:01.501Z,4.94
2023-04-09T03:34:03.228Z,4.96
2023-04-09T03:35:05.374Z,5.00
2023-04-09T03:36:07.088Z,4.99
2023-04-09T03:37:08.725Z,4.99
2023-04-09T03:38:10.491Z,4.90
2023-04-09T03:39:12.108Z,4.77
2023-04-09T03:40:13.899Z,4.67
2023-04-09T03:41:16.076Z,4.62
2023-04-09T03:42:17.732Z,4.55
2023-04-09T03:43:19.355Z,4.49
2023-04-09T03:44:21.230Z,4.36
2023-04-09T03:45:22.919Z,4.31
2023-04-09T03:46:25.281Z,4.28
2023-04-09T03:47:26.931Z,4.28
2023-04-09T03:48:28.545Z,4.22
2023-04-09T03:49:30.142Z,4.24
2023-04-09T03:50:31.742Z,4.25
2023-04-09T03:51:33.436Z,4.22
2023-04-09T03:52:35.022Z,4.24
2023-04-09T03:53:36.592Z,4.28
2023-04-09T03:54:38.190Z,4.29
2023-04-09T03:55:39.843Z,4.26
2023-04-09T03:56:41.554Z,4.22
2023-04-09T03:57:43.165Z,4.26
2023-04-09T03:58:44.814Z,4.24
2023-04-09T03:59:46.519Z,4.24
2023-04-09T04:00:48.810Z,4.31
2023-04-09T04:01:50.490Z,4.16
2023-04-09T04:02:52.617Z,4.21
2023-04-09T04:03:54.472Z,4.24
2023-04-09T04:04:56.126Z,4.22
2023-04-09T04:06:02.374Z,4.21
2023-04-09T04:07:04.104Z,4.14
2023-04-09T04:08:05.834Z,4.12
2023-04-09T04:09:07.483Z,4.05
2023-04-09T04:10:09.946Z,4.11
2023-04-09T04:11:11.535Z,4.09
2023-04-09T04:12:13.142Z,4.11
2023-04-09T04:13:14.796Z,4.19
2023-04-09T04:14:16.595Z,4.28
2023-04-09T04:15:20.161Z,4.28
2023-04-09T04:16:22.068Z,4.26
2023-04-09T04:17:23.657Z,4.26
2023-04-09T04:18:25.363Z,4.29
2023-04-09T04:19:26.991Z,4.31
2023-04-09T04:20:28.550Z,4.31
2023-04-09T04:21:30.132Z,4.31
2023-04-09T04:22:31.739Z,4.34
2023-04-09T04:23:34.211Z,4.42
2023-04-09T04:24:35.911Z,4.38
2023-04-09T04:25:37.510Z,4.39
2023-04-09T04:26:39.937Z,4.39
2023-04-09T04:27:42.400Z,4.42
2023-04-09T04:28:44.522Z,4.44
2023-04-09T04:29:46.220Z,4.55
2023-04-09T04:30:47.868Z,4.50
2023-04-09T04:31:49.488Z,4.46
2023-04-09T04:32:51.109Z,4.42
2023-04-09T04:33:52.813Z,4.45
2023-04-09T04:34:54.422Z,4.46
2023-04-09T04:36:10.705Z,4.52
2023-04-09T04:37:13.835Z,4.55
2023-04-09T04:38:15.518Z,4.62
2023-04-09T04:39:17.118Z,4.60
2023-04-09T04:40:18.725Z,4.59
2023-04-09T04:41:20.963Z,4.53
2023-04-09T04:42:23.301Z,4.60
2023-04-09T04:43:24.943Z,4.53
2023-04-09T04:44:26.523Z,4.65
2023-04-09T04:45:28.206Z,4.63
2023-04-09T04:46:29.814Z,4.63
2023-04-09T04:47:31.464Z,4.63
2023-04-09T04:48:33.258Z,4.63
2023-04-09T04:49:34.878Z,4.69
2023-04-09T04:50:36.575Z,4.73
2023-04-09T04:51:38.159Z,4.66
2023-04-09T04:52:40.491Z,4.62
2023-04-09T04:53:42.118Z,4.66
2023-04-09T04:54:43.824Z,4.72
2023-04-09T04:55:45.457Z,4.73
2023-04-09T04:56:47.075Z,4.75
2023-04-09T04:57:50.790Z,4.80
2023-04-09T04:58:52.596Z,4.86
2023-04-09T04:59:54.474Z,4.86
2023-04-09T05:00:56.077Z,4.93
2023-04-09T05:01:57.846Z,4.90
2023-04-09T05:02:59.684Z,4.94
2023-04-09T05:04:03.264Z,5.00
2023-04-09T05:05:05.314Z,4.84
2023-04-09T05:06:06.941Z,4.83
2023-04-09T05:07:08.536Z,4.86
2023-04-09T05:08:10.166Z,4.89
2023-04-09T05:09:11.764Z,4.93
2023-04-09T05:10:13.497Z,5.01
2023-04-09T05:11:16.966Z,4.89
2023-04-09T05:12:19.293Z,4.99
2023-04-09T05:13:20.894Z,4.91
2023-04-09T05:14:22.589Z,5.03
2023-04-09T05:15:24.232Z,5.04
2023-04-09T05:16:26.018Z,5.11
2023-04-09T05:17:27.745Z,5.10
2023-04-09T05:18:29.378Z,5.09
2023-04-09T05:19:31.044Z,5.03
2023-04-09T05:20:32.897Z,4.91
2023-04-09T05:21:34.549Z,4.89
2023-04-09T05:22:36.471Z,4.93
2023-04-09T05:23:38.098Z,4.97
2023-04-09T05:24:39.694Z,5.01
2023-04-09T05:25:41.375Z,4.99
2023-04-09T05:26:43.079Z,5.01
2023-04-09T05:27:44.681Z,5.00
2023-04-09T05:28:46.318Z,5.03
2023-04-09T05:29:48.208Z,5.00
2023-04-09T05:30:49.883Z,5.09
2023-04-09T05:31:51.630Z,5.11
2023-04-09T05:32:53.279Z,5.11
2023-04-09T05:33:54.972Z,5.17
2023-04-09T05:34:56.555Z,5.07
2023-04-09T05:35:58.220Z,5.13
2023-04-09T05:36:59.989Z,5.16
2023-04-09T05:38:01.702Z,5.23
2023-04-09T05:39:03.341Z,5.18
2023-04-09T05:40:05.595Z,5.27
2023-04-09T05:41:07.214Z,5.26
2023-04-09T05:42:08.975Z,5.28
2023-04-09T05:43:10.847Z,5.34
2023-04-09T05:44:12.666Z,5.32
2023-04-09T05:45:14.628Z,5.34
2023-04-09T05:46:16.260Z,5.37
2023-04-09T05:47:18.387Z,5.40
2023-04-09T05:48:21.183Z,5.41
2023-04-09T05:49:22.859Z,5.47
2023-04-09T05:50:24.483Z,5.51
2023-04-09T05:51:26.334Z,5.28
2023-04-09T05:52:28.556Z,5.41
2023-04-09T05:53:31.510Z,5.42
2023-04-09T05:54:33.145Z,5.51
2023-04-09T05:55:34.728Z,5.58
2023-04-09T05:56:36.513Z,5.55
2023-04-09T05:57:38.144Z,5.56
2023-04-09T05:58:39.727Z,5.56
2023-04-09T05:59:41.342Z,5.65
2023-04-09T06:00:42.903Z,5.71
2023-04-09T06:01:44.691Z,5.61
2023-04-09T06:02:46.611Z,5.75
2023-04-09T06:03:48.408Z,5.82
2023-04-09T06:04:50.187Z,5.85
2023-04-09T06:05:52.115Z,5.83
2023-04-09T06:06:54.056Z,5.86
2023-04-09T06:07:55.643Z,5.85
2023-04-09T06:08:57.812Z,5.82
2023-04-09T06:10:00.492Z,5.78
2023-04-09T06:11:02.106Z,5.73
2023-04-09T06:12:04.258Z,5.85
2023-04-09T06:13:06.359Z,5.96
2023-04-09T06:14:08.039Z,5.99
2023-04-09T06:15:10.033Z,6.02
2023-04-09T06:16:11.630Z,6.01
2023-04-09T06:17:13.258Z,6.10
2023-04-09T06:18:14.865Z,6.09
2023-04-09T06:19:16.862Z,6.14
2023-04-09T06:20:18.480Z,6.12
2023-04-09T06:21:20.322Z,6.06
2023-04-09T06:22:21.960Z,6.05
2023-04-09T06:23:23.563Z,6.10
2023-04-09T06:24:25.997Z,6.14
2023-04-09T06:25:27.643Z,6.14
2023-04-09T06:26:29.812Z,6.13
2023-04-09T06:27:31.486Z,6.20
2023-04-09T06:28:33.582Z,6.14
2023-04-09T06:29:35.394Z,6.10
2023-04-09T06:30:37.415Z,5.98
2023-04-09T06:31:39.609Z,6.05
2023-04-09T06:32:53.179Z,6.12
2023-04-09T06:33:56.094Z,6.19
2023-04-09T06:34:58.094Z,6.17
2023-04-09T06:35:59.768Z,6.22
2023-04-09T06:37:01.463Z,6.26
2023-04-09T06:38:03.061Z,6.32
2023-04-09T06:39:04.721Z,6.27
2023-04-09T06:40:07.551Z,6.29
2023-04-09T06:41:09.373Z,6.29
2023-04-09T06:42:10.951Z,6.23
2023-04-09T06:43:12.660Z,6.36
2023-04-09T06:44:14.250Z,6.43
2023-04-09T06:45:15.916Z,6.36
2023-04-09T06:46:20.146Z,6.37
2023-04-09T06:47:22.018Z,6.33
2023-04-09T06:48:23.582Z,6.46
2023-04-09T06:49:25.282Z,6.48
2023-04-09T06:50:27.047Z,6.37
2023-04-09T06:51:28.660Z,6.48
2023-04-09T06:52:30.395Z,6.50
2023-04-09T06:53:32.025Z,6.57
2023-04-09T06:54:33.599Z,6.48
2023-04-09T06:55:35.337Z,6.61
2023-04-09T06:56:36.939Z,6.53
2023-04-09T06:57:39.337Z,6.61
2023-04-09T06:58:41.031Z,6.67
2023-04-09T06:59:42.618Z,6.67
2023-04-09T07:00:44.235Z,6.68
2023-04-09T07:01:46.168Z,6.65
2023-04-09T07:02:48.064Z,6.74
2023-04-09T07:03:50.093Z,6.80
2023-04-09T07:04:51.949Z,6.73
2023-04-09T07:05:54.762Z,6.73
2023-04-09T07:06:59.236Z,6.65
2023-04-09T07:08:01.470Z,6.71
2023-04-09T07:09:03.447Z,6.77
2023-04-09T07:10:06.567Z,6.71
2023-04-09T07:11:08.479Z,6.67
2023-04-09T07:12:10.079Z,6.63
2023-04-09T07:13:11.758Z,6.61
2023-04-09T07:14:13.401Z,6.57
2023-04-09T07:15:15.016Z,6.54
2023-04-09T07:16:16.764Z,6.53
2023-04-09T07:17:18.381Z,6.48
2023-04-09T07:18:20.310Z,6.50
2023-04-09T07:19:21.967Z,6.50
2023-04-09T07:20:23.758Z,6.53
2023-04-09T07:21:26.158Z,6.50
2023-04-09T07:22:28.656Z,6.53
2023-04-09T07:23:30.584Z,6.54
2023-04-09T07:24:32.672Z,6.46
2023-04-09T07:25:34.480Z,6.53
2023-04-09T07:26:36.218Z,6.61
2023-04-09T07:27:37.834Z,6.67
2023-04-09T07:28:39.532Z,6.61
2023-04-09T07:29:44.514Z,6.74
2023-04-09T07:30:47.155Z,6.78
2023-04-09T07:31:48.853Z,6.78
2023-04-09T07:32:50.776Z,6.78
2023-04-09T07:33:52.781Z,6.89
2023-04-09T07:34:55.012Z,6.92
2023-04-09T07:35:56.906Z,6.97
2023-04-09T07:36:58.544Z,6.92
2023-04-09T07:38:00.267Z,6.97
2023-04-09T07:39:01.931Z,6.92
2023-04-09T07:40:04.137Z,6.92
2023-04-09T07:41:05.914Z,6.89
2023-04-09T07:42:07.565Z,6.89
2023-04-09T07:43:09.178Z,6.92
2023-04-09T07:44:11.332Z,6.77
2023-04-09T07:45:12.941Z,6.83
2023-04-09T07:46:21.877Z,6.70
2023-04-09T07:47:24.067Z,6.73
2023-04-09T07:48:25.900Z,6.87
2023-04-09T07:49:27.485Z,6.85
2023-04-09T07:50:29.356Z,7.02
2023-04-09T07:51:31.347Z,7.09
2023-04-09T07:52:33.016Z,7.14
2023-04-09T07:53:34.959Z,7.15
2023-04-09T07:54:36.715Z,7.28
2023-04-09T07:55:38.316Z,7.26
2023-04-09T07:56:39.997Z,7.45
2023-04-09T07:57:43.074Z,7.42
2023-04-09T07:58:44.856Z,7.52
2023-04-09T07:59:46.801Z,7.56
2023-04-09T08:00:48.822Z,7.52
2023-04-09T08:01:50.617Z,7.58
2023-04-09T08:02:52.896Z,7.43
2023-04-09T08:03:54.832Z,7.59
2023-04-09T08:04:56.910Z,7.67
2023-04-09T08:05:58.671Z,7.66
2023-04-09T08:07:00.299Z,7.67
2023-04-09T08:08:01.940Z,7.73
2023-04-09T08:09:03.610Z,7.71
2023-04-09T08:10:06.965Z,7.74
2023-04-09T08:11:08.665Z,7.71
2023-04-09T08:12:11.133Z,7.79
2023-04-09T08:13:12.738Z,7.81
2023-04-09T08:14:14.549Z,7.98
2023-04-09T08:15:16.342Z,8.11
2023-04-09T08:16:18.005Z,8.11
2023-04-09T08:17:19.701Z,8.22
2023-04-09T08:18:21.275Z,8.28
2023-04-09T08:19:22.892Z,8.17
2023-04-09T08:20:24.542Z,8.30
2023-04-09T08:21:26.758Z,8.31
2023-04-09T08:22:28.434Z,8.21
2023-04-09T08:23:30.019Z,8.34
2023-04-09T08:24:31.670Z,8.35
2023-04-09T08:25:33.229Z,8.41
2023-04-09T08:26:34.821Z,8.34
2023-04-09T08:27:37.214Z,8.35
2023-04-09T08:28:38.815Z,8.55
2023-04-09T08:29:42.623Z,8.56
2023-04-09T08:30:44.693Z,8.68
2023-04-09T08:31:46.507Z,8.77
2023-04-09T08:32:48.631Z,8.89
2023-04-09T08:33:50.993Z,8.87
2023-04-09T08:34:52.610Z,8.90
2023-04-09T08:35:54.397Z,8.99
2023-04-09T08:36:55.981Z,9.09
2023-04-09T08:37:57.731Z,9.09
2023-04-09T08:39:00.648Z,9.10
2023-04-09T08:40:02.268Z,9.09
2023-04-09T08:41:03.887Z,9.05
2023-04-09T08:42:06.769Z,9.05
2023-04-09T08:43:09.019Z,8.97
2023-04-09T08:44:10.613Z,8.99
2023-04-09T08:45:12.914Z,8.93
2023-04-09T08:46:18.411Z,8.95
2023-04-09T08:47:20.766Z,8.99
2023-04-09T08:48:22.685Z,9.02
2023-04-09T08:49:24.381Z,9.00
2023-04-09T08:50:26.793Z,9.13
2023-04-09T08:51:28.950Z,9.17
2023-04-09T08:52:34.092Z,9.30
2023-04-09T08:53:35.698Z,9.30
2023-04-09T08:54:37.345Z,9.33
2023-04-09T08:55:38.932Z,9.38
2023-04-09T08:56:40.648Z,9.30
2023-04-09T08:57:42.470Z,9.38
2023-04-09T08:58:44.788Z,9.34
2023-04-09T08:59:46.612Z,9.33
2023-04-09T09:00:48.194Z,9.31
2023-04-09T09:01:54.593Z,9.20
2023-04-09T09:03:07.185Z,9.09
2023-04-09T09:04:09.509Z,9.26
2023-04-09T09:05:13.132Z,9.20
2023-04-09T09:06:24.707Z,9.31
2023-04-09T09:07:28.044Z,9.31
2023-04-09T09:08:30.744Z,9.38
2023-04-09T09:09:32.388Z,9.50
2023-04-09T09:10:40.674Z,9.54
2023-04-09T09:11:46.213Z,9.50
2023-04-09T09:12:47.845Z,9.52
2023-04-09T09:14:00.490Z,9.46
2023-04-09T09:15:02.471Z,9.55
2023-04-09T09:16:14.502Z,9.67
2023-04-09T09:17:16.216Z,9.65
2023-04-09T09:18:18.596Z,9.65
2023-04-09T09:19:26.182Z,9.58
2023-04-09T09:20:28.027Z,9.58
2023-04-09T09:21:30.159Z,9.57
2023-04-09T09:22:32.030Z,9.52
2023-04-09T09:23:39.220Z,9.58
2023-04-09T09:24:51.352Z,9.71
2023-04-09T09:25:53.008Z,9.68
2023-04-09T09:26:54.649Z,9.82
2023-04-09T09:27:56.739Z,9.82
2023-04-09T09:28:59.020Z,9.89
2023-04-09T09:30:01.620Z,9.62
2023-04-09T09:31:09.816Z,9.77
2023-04-09T09:32:13.563Z,9.75
2023-04-09T09:33:15.688Z,9.59
2023-04-09T09:34:18.013Z,9.55
2023-04-09T09:35:19.802Z,9.46
2023-04-09T09:36:34.262Z,9.28
2023-04-09T09:37:36.065Z,9.50
2023-04-09T09:38:57.305Z,9.61
2023-04-09T09:39:59.446Z,9.71
2023-04-09T09:41:16.218Z,9.73
2023-04-09T09:42:17.842Z,9.75
2023-04-09T09:43:19.445Z,9.88
2023-04-09T09:44:33.311Z,9.94
2023-04-09T09:45:35.488Z,9.92
2023-04-09T09:46:41.445Z,9.91
2023-04-09T09:47:43.494Z,9.88
2023-04-09T09:48:46.577Z,9.88
2023-04-09T09:49:49.506Z,9.81
2023-04-09T09:50:51.213Z,9.50
2023-04-09T09:51:52.859Z,9.67
2023-04-09T09:52:59.113Z,9.68
2023-04-09T09:54:01.032Z,9.82
2023-04-09T09:55:02.704Z,9.79
2023-04-09T09:56:08.227Z,9.87
2023-04-09T09:57:10.908Z,9.98
2023-04-09T09:58:27.884Z,10.08
2023-04-09T09:59:31.933Z,10.03
2023-04-09T10:00:33.645Z,10.05
2023-04-09T10:01:36.856Z,9.99
2023-04-09T10:02:43.762Z,9.97
2023-04-09T10:03:46.559Z,9.99
2023-04-09T10:04:49.501Z,10.03
2023-04-09T10:05:51.656Z,10.13
2023-04-09T10:06:53.707Z,9.89
2023-04-09T10:07:56.425Z,9.97
2023-04-09T10:08:58.312Z,10.05
2023-04-09T10:10:00.076Z,10.05
2023-04-09T10:11:01.968Z,9.79
2023-04-09T10:12:05.028Z,9.98
2023-04-09T10:13:06.712Z,9.99
2023-04-09T10:14:08.352Z,10.09
2023-04-09T10:15:10.265Z,10.26
2023-04-09T10:16:13.136Z,10.22
2023-04-09T10:17:14.811Z,10.23
2023-04-09T10:18:16.644Z,10.28
2023-04-09T10:19:18.321Z,10.23
2023-04-09T10:20:24.121Z,10.20
2023-04-09T10:21:28.587Z,10.16
2023-04-09T10:22:30.243Z,10.30
2023-04-09T10:23:40.406Z,10.18
2023-04-09T10:24:42.121Z,10.25
2023-04-09T10:25:43.791Z,10.18
2023-04-09T10:26:46.086Z,10.18
2023-04-09T10:28:00.121Z,10.16
2023-04-09T10:29:14.694Z,10.18
2023-04-09T10:30:32.450Z,10.18
2023-04-09T10:31:47.754Z,10.23
2023-04-09T10:32:49.388Z,10.22
2023-04-09T10:33:51.026Z,10.26
2023-04-09T10:34:52.753Z,10.12
2023-04-09T10:35:55.415Z,10.16
2023-04-09T10:36:57.847Z,10.05
2023-04-09T10:38:00.520Z,10.10
2023-04-09T10:39:02.134Z,10.19
2023-04-09T10:40:03.890Z,10.26
2023-04-09T10:41:16.732Z,10.22
2023-04-09T10:42:24.905Z,10.28
2023-04-09T10:43:27.054Z,10.26
2023-04-09T10:44:28.886Z,10.22
2023-04-09T10:45:39.611Z,10.23
2023-04-09T10:46:43.111Z,10.18
2023-04-09T10:47:46.404Z,10.18
2023-04-09T10:48:48.079Z,10.20
2023-04-09T10:49:49.650Z,10.28
2023-04-09T10:50:54.046Z,10.22
2023-04-09T10:52:12.620Z,10.02
2023-04-09T10:53:26.484Z,9.79
2023-04-09T10:54:34.021Z,9.75
2023-04-09T10:55:37.603Z,9.73
2023-04-09T10:56:39.229Z,9.67
2023-04-09T10:57:41.530Z,9.67
2023-04-09T10:58:43.164Z,9.74
2023-04-09T10:59:52.270Z,9.79
2023-04-09T11:00:54.063Z,9.85
2023-04-09T11:01:55.777Z,9.88
2023-04-09T11:03:04.693Z,9.97
2023-04-09T11:04:11.455Z,10.10
2023-04-09T11:05:24.941Z,10.03
2023-04-09T11:06:27.681Z,10.20
2023-04-09T11:07:29.678Z,10.28
2023-04-09T11:08:32.220Z,10.26
2023-04-09T11:09:36.958Z,10.35
2023-04-09T11:10:39.964Z,10.45
2023-04-09T11:11:41.797Z,10.45
2023-04-09T11:12:43.496Z,10.39
2023-04-09T11:13:45.229Z,10.36
2023-04-09T11:14:46.901Z,10.28
2023-04-09T11:15:48.554Z,10.35
2023-04-09T11:16:50.446Z,10.35
2023-04-09T11:17:52.194Z,10.35
2023-04-09T11:18:56.276Z,10.32
2023-04-09T11:19:57.847Z,10.29
2023-04-09T11:21:00.532Z,10.35
2023-04-09T11:22:07.190Z,10.35
2023-04-09T11:23:08.796Z,10.39
2023-04-09T11:24:12.494Z,10.43
2023-04-09T11:25:33.302Z,10.29
2023-04-09T11:26:36.341Z,10.19
2023-04-09T11:27:39.027Z,10.08
2023-04-09T11:28:43.238Z,10.03
2023-04-09T11:29:44.901Z,10.01
2023-04-09T11:30:49.553Z,9.97
2023-04-09T11:31:51.591Z,9.94
2023-04-09T11:32:53.611Z,9.87
2023-04-09T11:33:55.277Z,9.78
2023-04-09T11:34:57.910Z,9.78
2023-04-09T11:35:59.560Z,9.84
2023-04-09T11:37:05.424Z,9.81
2023-04-09T11:38:08.272Z,9.78
2023-04-09T11:39:09.844Z,9.77
2023-04-09T11:40:21.610Z,9.77
2023-04-09T11:41:38.164Z,9.85
2023-04-09T11:42:39.763Z,9.87
2023-04-09T11:43:41.469Z,9.87
2023-04-09T11:44:45.108Z,9.88
2023-04-09T11:45:49.622Z,9.84
2023-04-09T11:46:52.042Z,9.82
2023-04-09T11:47:53.834Z,9.84
2023-04-09T11:48:55.942Z,9.87
2023-04-09T11:49:57.620Z,9.92
2023-04-09T11:50:59.284Z,9.99
2023-04-09T11:52:01.955Z,10.02
2023-04-09T11:53:16.537Z,10.08
2023-04-09T11:54:18.465Z,10.19
2023-04-09T11:55:27.040Z,10.26
2023-04-09T11:56:31.614Z,10.32
2023-04-09T11:57:46.612Z,10.42
2023-04-09T11:58:48.540Z,10.52
2023-04-09T11:59:50.275Z,10.61
2023-04-09T12:00:56.349Z,10.57
2023-04-09T12:01:58.635Z,10.55
2023-04-09T12:03:04.666Z,10.39
2023-04-09T12:04:07.922Z,10.30
2023-04-09T12:05:11.918Z,10.29
2023-04-09T12:06:13.687Z,10.28
2023-04-09T12:07:15.335Z,10.39
2023-04-09T12:08:18.532Z,10.49
2023-04-09T12:09:20.192Z,10.48
2023-04-09T12:10:26.953Z,10.56
2023-04-09T12:11:29.524Z,10.56
2023-04-09T12:12:31.318Z,10.59
2023-04-09T12:13:33.543Z,10.61
2023-04-09T12:14:35.185Z,10.71
2023-04-09T12:15:38.337Z,10.77
2023-04-09T12:16:44.708Z,10.85
2023-04-09T12:17:50.461Z,10.79
2023-04-09T12:18:55.895Z,10.80
2023-04-09T12:19:57.553Z,10.85
2023-04-09T12:21:01.138Z,10.91
2023-04-09T12:22:02.753Z,10.96
2023-04-09T12:23:05.175Z,11.04
2023-04-09T12:24:06.816Z,11.03
2023-04-09T12:25:08.822Z,11.14
2023-04-09T12:26:10.688Z,11.24
2023-04-09T12:27:12.268Z,11.27
2023-04-09T12:28:15.841Z,11.28
2023-04-09T12:29:18.835Z,11.31
2023-04-09T12:30:21.155Z,11.34
2023-04-09T12:31:22.836Z,11.52
2023-04-09T12:32:24.478Z,11.62
2023-04-09T12:33:26.218Z,11.46
2023-04-09T12:34:27.911Z,11.50
2023-04-09T12:35:29.644Z,11.55
2023-04-09T12:36:31.304Z,11.57
2023-04-09T12:37:32.925Z,11.59
2023-04-09T12:38:34.618Z,11.62
2023-04-09T12:39:36.364Z,11.65
2023-04-09T12:40:38.358Z,11.52
2023-04-09T12:41:39.975Z,11.36
2023-04-09T12:42:42.127Z,11.24
2023-04-09T12:43:44.045Z,11.13
2023-04-09T12:44:45.713Z,11.04
2023-04-09T12:45:47.429Z,11.00
2023-04-09T12:46:49.498Z,10.91
2023-04-09T12:47:51.283Z,10.93
2023-04-09T12:48:52.899Z,10.87
2023-04-09T12:49:54.705Z,10.87
2023-04-09T12:50:56.603Z,10.89
2023-04-09T12:51:58.204Z,10.96
2023-04-09T12:52:59.929Z,11.00
2023-04-09T12:54:04.073Z,11.01
2023-04-09T12:55:06.357Z,10.97
2023-04-09T12:56:08.374Z,10.89
2023-04-09T12:57:09.954Z,10.83
2023-04-09T12:58:11.528Z,10.80
2023-04-09T12:59:13.103Z,10.80
2023-04-09T13:00:15.654Z,10.77
2023-04-09T13:01:18.140Z,10.79
2023-04-09T13:02:20.558Z,10.84
2023-04-09T13:03:22.802Z,10.83
2023-04-09T13:04:24.605Z,10.96
2023-04-09T13:05:26.347Z,11.00
2023-04-09T13:06:28.187Z,11.04
2023-04-09T13:07:29.854Z,11.10
2023-04-09T13:08:31.508Z,11.13
2023-04-09T13:09:33.170Z,11.13
2023-04-09T13:10:34.877Z,11.07
2023-04-09T13:11:36.673Z,11.01
2023-04-09T13:12:38.382Z,11.00
2023-04-09T13:13:42.580Z,10.89
2023-04-09T13:14:47.413Z,10.79
2023-04-09T13:15:49.001Z,10.67
2023-04-09T13:16:52.481Z,10.63
2023-04-09T13:17:54.169Z,10.56
2023-04-09T13:18:55.899Z,10.50
2023-04-09T13:19:57.484Z,10.48
2023-04-09T13:20:59.165Z,10.42
2023-04-09T13:22:00.972Z,10.38
2023-04-09T13:23:02.749Z,10.38
2023-04-09T13:24:04.451Z,10.42
2023-04-09T13:25:06.297Z,10.48
2023-04-09T13:26:07.888Z,10.48
2023-04-09T13:27:09.727Z,10.48
2023-04-09T13:28:11.555Z,10.42
2023-04-09T13:29:13.235Z,10.42
2023-04-09T13:30:14.856Z,10.36
2023-04-09T13:31:16.585Z,10.33
2023-04-09T13:32:19.069Z,10.32
2023-04-09T13:33:20.750Z,10.26
2023-04-09T13:34:22.349Z,10.29
2023-04-09T13:35:24.252Z,10.29
2023-04-09T13:36:25.997Z,10.33
2023-04-09T13:37:27.600Z,10.35
2023-04-09T13:38:29.236Z,10.42
2023-04-09T13:39:31.073Z,10.46
2023-04-09T13:40:32.772Z,10.50
2023-04-09T13:41:34.631Z,10.57
2023-04-09T13:42:37.609Z,10.67
2023-04-09T13:43:39.198Z,10.70
2023-04-09T13:44:42.548Z,10.71
2023-04-09T13:45:44.359Z,10.73
2023-04-09T13:46:46.052Z,10.74
2023-04-09T13:47:47.684Z,10.84
2023-04-09T13:48:49.346Z,10.94
2023-04-09T13:49:51.820Z,10.99
2023-04-09T13:50:53.453Z,10.97
2023-04-09T13:51:55.812Z,11.03
2023-04-09T13:52:57.392Z,11.01
2023-04-09T13:53:59.154Z,11.03